Club Med II — FNIR — position and weather

sailwx.info

Track history (hours):
 
Tides and Currents Weather Stations Pressure Air Temp Water Temp Dewpoint Dewpoint Depression Visibility Wind Speed Wind Dir Waves Ship Positions

Club Med II

Operator: V.Ships Leisure S.A.M

Last reported at 2018-Aug-12 00:29 UTC. Time now 2018-Aug-18 00:46 UTC.
Position N 37°11' E 023°30'.

Length 187 m; draft 5.3 m.

Type: Ship. MMSI: 227194000.

Date/timePositionNaut miles runAvg speedWind from/ knotsBaromVisibWave heightAir tempDewpointWater temp
2018-Aug-12 00:29N 37°11' E 023°30'2911.4
2018-Aug-11 21:55N 37°38' E 023°42'512.1
2018-Aug-11 21:30N 37°43' E 023°41'510.7
2018-Aug-11 21:00N 37°48' E 023°38'611.6
2018-Aug-11 20:30N 37°54' E 023°37'3 5.5
2018-Aug-11 20:00N 37°56' E 023°38'0 0.0
2018-Aug-11 19:30N 37°56' E 023°38'0 0.0
2018-Aug-11 19:00N 37°56' E 023°38'0 0.0
2018-Aug-11 18:30N 37°56' E 023°38'0 0.0
2018-Aug-11 18:00N 37°56' E 023°38'0 0.0
2018-Aug-11 17:30N 37°56' E 023°38'0 0.0
2018-Aug-11 17:00N 37°56' E 023°38'0 0.0
2018-Aug-11 16:30N 37°56' E 023°38'0 0.0
2018-Aug-11 16:00N 37°56' E 023°38'0 0.0
2018-Aug-11 15:30N 37°56' E 023°38'0 0.0
2018-Aug-11 15:00N 37°56' E 023°38'0 0.0
2018-Aug-11 14:30N 37°56' E 023°38'0 0.0
2018-Aug-11 14:00N 37°56' E 023°38'0 0.0
2018-Aug-11 13:30N 37°56' E 023°38'0 0.0
2018-Aug-11 13:00N 37°56' E 023°38'0 0.0
2018-Aug-11 12:30N 37°56' E 023°38'0 0.0
2018-Aug-11 12:00N 37°56' E 023°38'0 0.0
2018-Aug-11 11:30N 37°56' E 023°38'0 0.0
2018-Aug-11 11:00N 37°56' E 023°38'0 0.0
2018-Aug-11 10:30N 37°56' E 023°38'0 0.0
2018-Aug-11 10:00N 37°56' E 023°38'0 0.0
2018-Aug-11 09:30N 37°56' E 023°38'0 0.0
2018-Aug-11 09:00N 37°56' E 023°38'0 0.0
2018-Aug-11 08:30N 37°56' E 023°38'0 0.0
2018-Aug-11 08:00N 37°56' E 023°38'0 0.0
2018-Aug-11 07:30N 37°56' E 023°38'0 0.0
2018-Aug-11 07:00N 37°56' E 023°38'0 0.0
2018-Aug-11 06:30N 37°56' E 023°38'0 0.0
2018-Aug-11 06:00N 37°56' E 023°38'0 0.0
2018-Aug-11 05:30N 37°56' E 023°38'0 0.0
2018-Aug-11 05:00N 37°56' E 023°38'0 0.0
2018-Aug-11 04:30N 37°56' E 023°38'0 0.0
2018-Aug-11 04:00N 37°56' E 023°38'0 0.0
2018-Aug-11 03:31N 37°56' E 023°38'1 2.6
2018-Aug-11 03:00N 37°56' E 023°37'2 3.0
2018-Aug-11 02:31N 37°55' E 023°37'4 8.5
2018-Aug-11 02:01N 37°51' E 023°39'4 8.8
2018-Aug-11 01:31N 37°47' E 023°42'4 8.2
2018-Aug-11 01:00N 37°43' E 023°44'5 8.0
2018-Aug-11 00:20N 37°39' E 023°49'48 7.3
2018-Aug-10 17:44N 37°43' E 024°49'211.0
2018-Aug-10 17:30N 37°42' E 024°52'611.0
2018-Aug-10 17:00N 37°38' E 024°57'510.1
2018-Aug-10 16:30N 37°35' E 025°02'5 9.6
2018-Aug-10 16:00N 37°32' E 025°06'510.8
2018-Aug-10 15:30N 37°30' E 025°13'510.9
2018-Aug-10 15:01N 37°28' E 025°19'0 0.0
2018-Aug-10 14:29N 37°28' E 025°19'0 0.0
2018-Aug-10 13:59N 37°28' E 025°19'0 0.0
2018-Aug-10 13:29N 37°28' E 025°19'0 0.0
2018-Aug-10 12:59N 37°28' E 025°19'0 0.0
2018-Aug-10 12:29N 37°28' E 025°19'0 0.0
2018-Aug-10 11:59N 37°28' E 025°19'0 0.0
2018-Aug-10 11:26N 37°28' E 025°19'0 0.0
2018-Aug-10 10:59N 37°28' E 025°19'0 0.0
2018-Aug-10 10:29N 37°28' E 025°19'0 0.0
2018-Aug-10 09:59N 37°28' E 025°19'0 0.0
2018-Aug-10 09:29N 37°28' E 025°19'0 0.0
2018-Aug-10 08:59N 37°28' E 025°19'0 0.0
2018-Aug-10 08:29N 37°28' E 025°19'0 0.0
2018-Aug-10 07:59N 37°28' E 025°19'0 0.0
2018-Aug-10 07:29N 37°28' E 025°19'0 0.0
2018-Aug-10 06:59N 37°28' E 025°19'0 0.0
2018-Aug-10 06:29N 37°28' E 025°19'0 0.0
2018-Aug-10 05:59N 37°28' E 025°19'0 0.0
2018-Aug-10 05:29N 37°28' E 025°19'0 0.0
2018-Aug-10 04:56N 37°28' E 025°19'0 0.0
2018-Aug-10 04:29N 37°28' E 025°19'0 0.0
2018-Aug-10 03:59N 37°28' E 025°19'0 0.0
2018-Aug-10 03:29N 37°28' E 025°19'0 0.0
2018-Aug-10 02:59N 37°28' E 025°19'0 0.0
2018-Aug-10 02:29N 37°28' E 025°19'0 0.0
2018-Aug-10 01:59N 37°28' E 025°19'0 0.0
2018-Aug-10 01:29N 37°28' E 025°19'0 0.0
2018-Aug-10 00:59N 37°28' E 025°19'0 0.0
2018-Aug-10 00:28N 37°28' E 025°19'0 0.0
2018-Aug-09 23:58N 37°28' E 025°19'0 0.0
2018-Aug-09 23:28N 37°28' E 025°19'0 0.0
2018-Aug-09 22:58N 37°28' E 025°19'0 0.0
2018-Aug-09 22:28N 37°28' E 025°19'0 0.0
2018-Aug-09 21:58N 37°28' E 025°19'0 0.0
2018-Aug-09 21:28N 37°28' E 025°19'0 0.0
2018-Aug-09 20:58N 37°28' E 025°19'0 0.0
2018-Aug-09 20:28N 37°28' E 025°19'0 0.0
2018-Aug-09 19:58N 37°28' E 025°19'0 0.0
2018-Aug-09 19:28N 37°28' E 025°19'0 0.0
2018-Aug-09 18:58N 37°28' E 025°19'0 0.0
2018-Aug-09 18:25N 37°28' E 025°19'0 0.0
2018-Aug-09 17:55N 37°28' E 025°19'0 0.0
2018-Aug-09 17:28N 37°28' E 025°19'0 0.0
2018-Aug-09 16:58N 37°28' E 025°19'0 0.0
2018-Aug-09 16:28N 37°28' E 025°19'0 0.0
2018-Aug-09 15:58N 37°28' E 025°19'0 0.0
2018-Aug-09 15:28N 37°28' E 025°19'0 0.0
2018-Aug-09 14:58N 37°28' E 025°19'0 0.0
2018-Aug-09 14:30N 37°28' E 025°19'1 1.9
2018-Aug-09 14:00N 37°27' E 025°19'0 0.2
2018-Aug-09 13:30N 37°27' E 025°19'0 0.4
2018-Aug-09 13:00N 37°27' E 025°19'2 3.3
2018-Aug-09 12:30N 37°27' E 025°17'510.6
2018-Aug-09 12:00N 37°22' E 025°15'2 3.2
2018-Aug-09 11:30N 37°23' E 025°16'0 0.0
2018-Aug-09 11:00N 37°23' E 025°16'0 0.0
2018-Aug-09 10:30N 37°23' E 025°16'0 0.0
2018-Aug-09 10:00N 37°23' E 025°16'0 0.0
2018-Aug-09 09:30N 37°23' E 025°16'0 0.0
2018-Aug-09 08:54N 37°23' E 025°16'0 0.0
2018-Aug-09 08:30N 37°23' E 025°16'0 0.0
2018-Aug-09 07:57N 37°23' E 025°16'0 0.0
2018-Aug-09 07:30N 37°23' E 025°16'0 0.0
2018-Aug-09 07:00N 37°23' E 025°16'0 0.0
2018-Aug-09 06:30N 37°23' E 025°16'0 0.0
2018-Aug-09 06:00N 37°23' E 025°16'0 0.0
2018-Aug-09 05:30N 37°23' E 025°16'0 0.0
2018-Aug-09 05:00N 37°23' E 025°16'0 0.1
2018-Aug-09 04:30N 37°23' E 025°16'1 2.7
2018-Aug-09 04:00N 37°23' E 025°17'5 9.9
2018-Aug-09 03:30N 37°28' E 025°18'4 7.8
2018-Aug-09 03:00N 37°27' E 025°14'4 8.2
2018-Aug-09 02:30N 37°25' E 025°09'510.0
2018-Aug-09 01:58N 37°21' E 025°05'511.3
2018-Aug-09 01:30N 37°18' E 024°60'611.3
2018-Aug-09 01:00N 37°15' E 024°54'  
Track history (hours):
 
Tides and Currents Weather Stations Pressure Air Temp Water Temp Dewpoint Dewpoint Depression Visibility Wind Speed Wind Dir Waves Ship Positions

Club Med II

Operator: V.Ships Leisure S.A.M

Last reported at 2018-Aug-12 00:29 UTC. Time now 2018-Aug-18 00:46 UTC.
Position N 37°11' E 023°30'.

Length 187 m; draft 5.3 m.

Type: Ship. MMSI: 227194000.

Date/timePositionNaut miles runAvg speedWind from/ knotsBaromVisibWave heightAir tempDewpointWater temp
2018-Aug-12 00:29N 37°11' E 023°30'2911.4
2018-Aug-11 21:55N 37°38' E 023°42'512.1
2018-Aug-11 21:30N 37°43' E 023°41'510.7
2018-Aug-11 21:00N 37°48' E 023°38'611.6
2018-Aug-11 20:30N 37°54' E 023°37'3 5.5
2018-Aug-11 20:00N 37°56' E 023°38'0 0.0
2018-Aug-11 19:30N 37°56' E 023°38'0 0.0
2018-Aug-11 19:00N 37°56' E 023°38'0 0.0
2018-Aug-11 18:30N 37°56' E 023°38'0 0.0
2018-Aug-11 18:00N 37°56' E 023°38'0 0.0
2018-Aug-11 17:30N 37°56' E 023°38'0 0.0
2018-Aug-11 17:00N 37°56' E 023°38'0 0.0
2018-Aug-11 16:30N 37°56' E 023°38'0 0.0
2018-Aug-11 16:00N 37°56' E 023°38'0 0.0
2018-Aug-11 15:30N 37°56' E 023°38'0 0.0
2018-Aug-11 15:00N 37°56' E 023°38'0 0.0
2018-Aug-11 14:30N 37°56' E 023°38'0 0.0
2018-Aug-11 14:00N 37°56' E 023°38'0 0.0
2018-Aug-11 13:30N 37°56' E 023°38'0 0.0
2018-Aug-11 13:00N 37°56' E 023°38'0 0.0
2018-Aug-11 12:30N 37°56' E 023°38'0 0.0
2018-Aug-11 12:00N 37°56' E 023°38'0 0.0
2018-Aug-11 11:30N 37°56' E 023°38'0 0.0
2018-Aug-11 11:00N 37°56' E 023°38'0 0.0
2018-Aug-11 10:30N 37°56' E 023°38'0 0.0
2018-Aug-11 10:00N 37°56' E 023°38'0 0.0
2018-Aug-11 09:30N 37°56' E 023°38'0 0.0
2018-Aug-11 09:00N 37°56' E 023°38'0 0.0
2018-Aug-11 08:30N 37°56' E 023°38'0 0.0
2018-Aug-11 08:00N 37°56' E 023°38'0 0.0
2018-Aug-11 07:30N 37°56' E 023°38'0 0.0
2018-Aug-11 07:00N 37°56' E 023°38'0 0.0
2018-Aug-11 06:30N 37°56' E 023°38'0 0.0
2018-Aug-11 06:00N 37°56' E 023°38'0 0.0
2018-Aug-11 05:30N 37°56' E 023°38'0 0.0
2018-Aug-11 05:00N 37°56' E 023°38'0 0.0
2018-Aug-11 04:30N 37°56' E 023°38'0 0.0
2018-Aug-11 04:00N 37°56' E 023°38'0 0.0
2018-Aug-11 03:31N 37°56' E 023°38'1 2.6
2018-Aug-11 03:00N 37°56' E 023°37'2 3.0
2018-Aug-11 02:31N 37°55' E 023°37'4 8.5
2018-Aug-11 02:01N 37°51' E 023°39'4 8.8
2018-Aug-11 01:31N 37°47' E 023°42'4 8.2
2018-Aug-11 01:00N 37°43' E 023°44'5 8.0
2018-Aug-11 00:20N 37°39' E 023°49'48 7.3
2018-Aug-10 17:44N 37°43' E 024°49'211.0
2018-Aug-10 17:30N 37°42' E 024°52'611.0
2018-Aug-10 17:00N 37°38' E 024°57'510.1
2018-Aug-10 16:30N 37°35' E 025°02'5 9.6
2018-Aug-10 16:00N 37°32' E 025°06'510.8
2018-Aug-10 15:30N 37°30' E 025°13'510.9
2018-Aug-10 15:01N 37°28' E 025°19'0 0.0
2018-Aug-10 14:29N 37°28' E 025°19'0 0.0
2018-Aug-10 13:59N 37°28' E 025°19'0 0.0
2018-Aug-10 13:29N 37°28' E 025°19'0 0.0
2018-Aug-10 12:59N 37°28' E 025°19'0 0.0
2018-Aug-10 12:29N 37°28' E 025°19'0 0.0
2018-Aug-10 11:59N 37°28' E 025°19'0 0.0
2018-Aug-10 11:26N 37°28' E 025°19'0 0.0
2018-Aug-10 10:59N 37°28' E 025°19'0 0.0
2018-Aug-10 10:29N 37°28' E 025°19'0 0.0
2018-Aug-10 09:59N 37°28' E 025°19'0 0.0
2018-Aug-10 09:29N 37°28' E 025°19'0 0.0
2018-Aug-10 08:59N 37°28' E 025°19'0 0.0
2018-Aug-10 08:29N 37°28' E 025°19'0 0.0
2018-Aug-10 07:59N 37°28' E 025°19'0 0.0
2018-Aug-10 07:29N 37°28' E 025°19'0 0.0
2018-Aug-10 06:59N 37°28' E 025°19'0 0.0
2018-Aug-10 06:29N 37°28' E 025°19'0 0.0
2018-Aug-10 05:59N 37°28' E 025°19'0 0.0
2018-Aug-10 05:29N 37°28' E 025°19'0 0.0
2018-Aug-10 04:56N 37°28' E 025°19'0 0.0
2018-Aug-10 04:29N 37°28' E 025°19'0 0.0
2018-Aug-10 03:59N 37°28' E 025°19'0 0.0
2018-Aug-10 03:29N 37°28' E 025°19'0 0.0
2018-Aug-10 02:59N 37°28' E 025°19'0 0.0
2018-Aug-10 02:29N 37°28' E 025°19'0 0.0
2018-Aug-10 01:59N 37°28' E 025°19'0 0.0
2018-Aug-10 01:29N 37°28' E 025°19'0 0.0
2018-Aug-10 00:59N 37°28' E 025°19'0 0.0
2018-Aug-10 00:28N 37°28' E 025°19'0 0.0
2018-Aug-09 23:58N 37°28' E 025°19'0 0.0
2018-Aug-09 23:28N 37°28' E 025°19'0 0.0
2018-Aug-09 22:58N 37°28' E 025°19'0 0.0
2018-Aug-09 22:28N 37°28' E 025°19'0 0.0
2018-Aug-09 21:58N 37°28' E 025°19'0 0.0
2018-Aug-09 21:28N 37°28' E 025°19'0 0.0
2018-Aug-09 20:58N 37°28' E 025°19'0 0.0
2018-Aug-09 20:28N 37°28' E 025°19'0 0.0
2018-Aug-09 19:58N 37°28' E 025°19'0 0.0
2018-Aug-09 19:28N 37°28' E 025°19'0 0.0
2018-Aug-09 18:58N 37°28' E 025°19'0 0.0
2018-Aug-09 18:25N 37°28' E 025°19'0 0.0
2018-Aug-09 17:55N 37°28' E 025°19'0 0.0
2018-Aug-09 17:28N 37°28' E 025°19'0 0.0
2018-Aug-09 16:58N 37°28' E 025°19'0 0.0
2018-Aug-09 16:28N 37°28' E 025°19'0 0.0
2018-Aug-09 15:58N 37°28' E 025°19'0 0.0
2018-Aug-09 15:28N 37°28' E 025°19'0 0.0
2018-Aug-09 14:58N 37°28' E 025°19'0 0.0
2018-Aug-09 14:30N 37°28' E 025°19'1 1.9
2018-Aug-09 14:00N 37°27' E 025°19'0 0.2
2018-Aug-09 13:30N 37°27' E 025°19'0 0.4
2018-Aug-09 13:00N 37°27' E 025°19'2 3.3
2018-Aug-09 12:30N 37°27' E 025°17'510.6
2018-Aug-09 12:00N 37°22' E 025°15'2 3.2
2018-Aug-09 11:30N 37°23' E 025°16'0 0.0
2018-Aug-09 11:00N 37°23' E 025°16'0 0.0
2018-Aug-09 10:30N 37°23' E 025°16'0 0.0
2018-Aug-09 10:00N 37°23' E 025°16'0 0.0
2018-Aug-09 09:30N 37°23' E 025°16'0 0.0
2018-Aug-09 08:54N 37°23' E 025°16'0 0.0
2018-Aug-09 08:30N 37°23' E 025°16'0 0.0
2018-Aug-09 07:57N 37°23' E 025°16'0 0.0
2018-Aug-09 07:30N 37°23' E 025°16'0 0.0
2018-Aug-09 07:00N 37°23' E 025°16'0 0.0
2018-Aug-09 06:30N 37°23' E 025°16'0 0.0
2018-Aug-09 06:00N 37°23' E 025°16'0 0.0
2018-Aug-09 05:30N 37°23' E 025°16'0 0.0
2018-Aug-09 05:00N 37°23' E 025°16'0 0.1
2018-Aug-09 04:30N 37°23' E 025°16'1 2.7
2018-Aug-09 04:00N 37°23' E 025°17'5 9.9
2018-Aug-09 03:30N 37°28' E 025°18'4 7.8
2018-Aug-09 03:00N 37°27' E 025°14'4 8.2
2018-Aug-09 02:30N 37°25' E 025°09'510.0
2018-Aug-09 01:58N 37°21' E 025°05'511.3
2018-Aug-09 01:30N 37°18' E 024°60'611.3
2018-Aug-09 01:00N 37°15' E 024°54'  

Dump ship's entire track history